createdAt,value
2022-07-25T00:01:47.139Z,21.47
2022-07-25T00:04:14.743Z,21.47
2022-07-25T00:06:42.583Z,21.37
2022-07-25T00:09:09.487Z,21.35
2022-07-25T00:11:36.459Z,21.36
2022-07-25T00:14:03.982Z,21.37
2022-07-25T00:16:31.214Z,21.26
2022-07-25T00:18:57.853Z,21.22
2022-07-25T00:21:24.476Z,21.22
2022-07-25T00:23:51.082Z,21.29
2022-07-25T00:26:17.823Z,21.22
2022-07-25T00:28:44.641Z,21.16
2022-07-25T00:31:11.323Z,21.15
2022-07-25T00:33:39.904Z,21.31
2022-07-25T00:36:08.244Z,21.28
2022-07-25T00:38:34.976Z,21.21
2022-07-25T00:41:03.105Z,21.13
2022-07-25T00:43:29.755Z,21.14
2022-07-25T00:45:58.761Z,21.01
2022-07-25T00:48:27.306Z,21.00
2022-07-25T00:50:58.068Z,21.03
2022-07-25T00:53:25.487Z,20.97
2022-07-25T00:55:52.568Z,21.00
2022-07-25T00:58:19.235Z,21.02
2022-07-25T01:00:46.561Z,20.96
2022-07-25T01:03:13.435Z,20.99
2022-07-25T01:05:40.222Z,20.88
2022-07-25T01:08:07.393Z,20.83
2022-07-25T01:10:34.929Z,20.87
2022-07-25T01:13:01.857Z,20.87
2022-07-25T01:15:28.821Z,20.74
2022-07-25T01:17:56.017Z,20.75
2022-07-25T01:20:24.258Z,20.76
2022-07-25T01:22:51.987Z,20.68
2022-07-25T01:25:19.630Z,20.70
2022-07-25T01:27:51.234Z,20.75
2022-07-25T01:30:22.526Z,20.73
2022-07-25T01:32:49.134Z,20.67
2022-07-25T01:35:15.855Z,20.56
2022-07-25T01:37:45.402Z,20.45
2022-07-25T01:40:13.818Z,20.42
2022-07-25T01:42:40.900Z,20.47
2022-07-25T01:45:08.121Z,20.37
2022-07-25T01:47:34.828Z,20.37
2022-07-25T01:50:01.673Z,20.35
2022-07-25T01:52:28.315Z,20.40
2022-07-25T01:54:54.959Z,20.44
2022-07-25T01:57:21.759Z,20.39
2022-07-25T01:59:50.957Z,20.46
2022-07-25T02:02:17.589Z,20.51
2022-07-25T02:04:44.312Z,20.45
2022-07-25T02:07:11.042Z,20.30
2022-07-25T02:09:37.707Z,20.27
2022-07-25T02:12:04.599Z,20.21
2022-07-25T02:14:31.212Z,20.11
2022-07-25T02:16:58.142Z,20.14
2022-07-25T02:19:24.896Z,20.05
2022-07-25T02:21:51.613Z,20.00
2022-07-25T02:24:18.278Z,19.94
2022-07-25T02:26:44.880Z,19.77
2022-07-25T02:29:11.534Z,19.78
2022-07-25T02:31:38.169Z,19.81
2022-07-25T02:34:05.165Z,19.76
2022-07-25T02:36:32.063Z,19.74
2022-07-25T02:38:58.778Z,19.74
2022-07-25T02:41:25.479Z,19.67
2022-07-25T02:43:52.106Z,19.72
2022-07-25T02:46:18.946Z,19.67
2022-07-25T02:48:45.608Z,19.62
2022-07-25T02:51:13.241Z,19.58
2022-07-25T02:53:56.696Z,19.47
2022-07-25T02:56:24.129Z,19.56
2022-07-25T02:58:51.201Z,19.52
2022-07-25T03:01:17.968Z,19.43
2022-07-25T03:03:44.668Z,19.40
2022-07-25T03:06:11.396Z,19.43
2022-07-25T03:08:38.059Z,19.38
2022-07-25T03:11:04.832Z,19.41
2022-07-25T03:13:33.307Z,19.38
2022-07-25T03:16:00.432Z,19.37
2022-07-25T03:18:27.006Z,19.29
2022-07-25T03:20:53.624Z,19.27
2022-07-25T03:23:20.383Z,19.25
2022-07-25T03:25:47.143Z,19.30
2022-07-25T03:28:13.817Z,19.23
2022-07-25T03:30:40.601Z,19.19
2022-07-25T03:33:07.241Z,19.17
2022-07-25T03:35:33.863Z,19.23
2022-07-25T03:38:02.139Z,19.22
2022-07-25T03:40:29.057Z,19.23
2022-07-25T03:42:55.852Z,19.22
2022-07-25T03:45:22.592Z,19.19
2022-07-25T03:47:49.230Z,19.22
2022-07-25T03:50:15.974Z,19.22
2022-07-25T03:52:42.573Z,19.29
2022-07-25T03:55:10.695Z,19.33
2022-07-25T03:57:37.985Z,19.33
2022-07-25T04:00:07.331Z,19.39
2022-07-25T04:02:34.459Z,19.45
2022-07-25T04:05:01.307Z,19.48
2022-07-25T04:07:28.015Z,19.48
2022-07-25T04:09:54.770Z,19.44
2022-07-25T04:12:21.407Z,19.49
2022-07-25T04:14:48.172Z,19.45
2022-07-25T04:17:15.031Z,19.44
2022-07-25T04:19:41.824Z,19.37
2022-07-25T04:22:08.707Z,19.42
2022-07-25T04:24:35.372Z,19.69
2022-07-25T04:27:02.291Z,19.63
2022-07-25T04:29:29.259Z,19.64
2022-07-25T04:31:56.240Z,19.69
2022-07-25T04:34:22.910Z,19.75
2022-07-25T04:36:49.674Z,19.92
2022-07-25T04:39:16.325Z,19.93
2022-07-25T04:41:42.937Z,20.15
2022-07-25T04:44:09.859Z,20.21
2022-07-25T04:46:36.624Z,20.31
2022-07-25T04:49:03.375Z,20.34
2022-07-25T04:51:30.118Z,20.54
2022-07-25T04:53:56.740Z,20.57
2022-07-25T04:56:23.339Z,20.64
2022-07-25T04:58:49.982Z,20.58
2022-07-25T05:01:16.708Z,20.68
2022-07-25T05:03:50.549Z,20.69
2022-07-25T05:06:18.934Z,20.82
2022-07-25T05:08:45.902Z,20.97
2022-07-25T05:11:12.628Z,20.98
2022-07-25T05:13:39.304Z,21.22
2022-07-25T05:16:06.444Z,21.33
2022-07-25T05:18:34.882Z,21.49
2022-07-25T05:21:01.705Z,21.62
2022-07-25T05:23:28.324Z,21.59
2022-07-25T05:25:54.926Z,21.70
2022-07-25T05:28:21.565Z,21.86
2022-07-25T05:30:48.132Z,22.00
2022-07-25T05:33:15.196Z,22.21
2022-07-25T05:35:41.853Z,22.24
2022-07-25T05:38:08.507Z,22.40
2022-07-25T05:40:37.228Z,22.47
2022-07-25T05:43:03.906Z,22.75
2022-07-25T05:45:31.218Z,22.91
2022-07-25T05:47:57.858Z,22.95
2022-07-25T05:50:24.653Z,23.01
2022-07-25T05:52:51.640Z,23.05
2022-07-25T05:55:18.392Z,23.23
2022-07-25T05:57:45.432Z,23.38
2022-07-25T06:00:12.553Z,23.40
2022-07-25T06:02:39.466Z,23.55
2022-07-25T06:05:06.494Z,23.56
2022-07-25T06:07:33.175Z,23.76
2022-07-25T06:09:59.775Z,23.79
2022-07-25T06:12:26.345Z,24.00
2022-07-25T06:14:53.263Z,24.08
2022-07-25T06:17:20.199Z,24.12
2022-07-25T06:19:46.901Z,24.09
2022-07-25T06:22:14.445Z,24.16
2022-07-25T06:24:41.448Z,24.28
2022-07-25T06:27:08.970Z,24.37
2022-07-25T06:29:35.913Z,24.48
2022-07-25T06:32:02.941Z,24.52
2022-07-25T06:34:30.018Z,24.54
2022-07-25T06:36:57.737Z,24.68
2022-07-25T06:39:25.771Z,24.76
2022-07-25T06:41:52.421Z,24.91
2022-07-25T06:44:19.060Z,24.98
2022-07-25T06:46:45.731Z,25.05
2022-07-25T06:49:12.510Z,25.28
2022-07-25T06:51:39.208Z,25.21
2022-07-25T06:54:06.301Z,25.24
2022-07-25T06:56:33.246Z,25.15
2022-07-25T06:59:00.621Z,25.32
2022-07-25T07:01:28.023Z,25.80
2022-07-25T07:03:54.889Z,26.04
2022-07-25T07:06:21.611Z,25.98
2022-07-25T07:08:48.314Z,26.06
2022-07-25T07:11:15.475Z,26.26
2022-07-25T07:13:42.279Z,26.26
2022-07-25T07:16:09.075Z,25.98
2022-07-25T07:18:35.764Z,26.22
2022-07-25T07:21:02.834Z,26.33
2022-07-25T07:23:29.488Z,26.15
2022-07-25T07:25:56.953Z,26.42
2022-07-25T07:28:23.682Z,26.17
2022-07-25T07:33:38.061Z,26.67
2022-07-25T07:36:04.959Z,26.79
2022-07-25T07:38:31.618Z,26.66
2022-07-25T07:40:58.246Z,26.58
2022-07-25T07:43:29.737Z,26.69
2022-07-25T07:46:02.967Z,26.81
2022-07-25T07:48:31.166Z,26.86
2022-07-25T07:50:58.473Z,26.93
2022-07-25T07:53:43.791Z,27.23
2022-07-25T07:56:10.485Z,27.03
2022-07-25T07:58:37.093Z,27.04
2022-07-25T08:01:03.865Z,27.12
2022-07-25T08:03:30.795Z,27.20
2022-07-25T08:05:57.443Z,27.17
2022-07-25T08:08:27.837Z,27.62
2022-07-25T08:10:59.192Z,27.55
2022-07-25T08:13:30.280Z,27.44
2022-07-25T08:15:59.450Z,27.80
2022-07-25T08:18:30.075Z,27.68
2022-07-25T08:20:57.289Z,27.89
2022-07-25T08:23:25.808Z,27.79
2022-07-25T08:25:52.686Z,28.13
2022-07-25T08:28:20.099Z,28.02
2022-07-25T08:30:47.025Z,28.04
2022-07-25T08:33:16.209Z,27.95
2022-07-25T08:35:48.606Z,28.10
2022-07-25T08:38:16.527Z,28.48
2022-07-25T08:40:43.162Z,28.48
2022-07-25T08:43:14.674Z,28.43
2022-07-25T08:46:02.600Z,28.16
2022-07-25T08:48:29.882Z,28.12
2022-07-25T08:50:59.433Z,28.12
2022-07-25T08:53:35.051Z,28.21
2022-07-25T08:56:12.245Z,28.27
2022-07-25T08:58:41.915Z,28.16
2022-07-25T09:01:10.972Z,28.26
2022-07-25T09:03:38.550Z,28.33
2022-07-25T09:06:19.131Z,28.40
2022-07-25T09:08:57.139Z,28.42
2022-07-25T09:11:37.138Z,28.53
2022-07-25T09:14:08.602Z,28.53
2022-07-25T09:16:40.318Z,28.81
2022-07-25T09:19:16.780Z,28.71
2022-07-25T09:21:45.590Z,28.78
2022-07-25T09:24:17.784Z,28.92
2022-07-25T09:26:44.378Z,28.86
2022-07-25T09:29:17.242Z,28.85
2022-07-25T09:31:43.887Z,28.90
2022-07-25T09:34:11.646Z,29.04
2022-07-25T09:36:56.115Z,29.19
2022-07-25T09:39:46.505Z,29.46
2022-07-25T09:42:36.393Z,29.46
2022-07-25T09:45:14.380Z,29.55
2022-07-25T09:47:59.800Z,29.66
2022-07-25T09:50:28.115Z,29.75
2022-07-25T09:52:57.015Z,29.90
2022-07-25T09:55:24.445Z,30.03
2022-07-25T09:57:52.741Z,30.11
2022-07-25T10:00:24.163Z,30.11
2022-07-25T10:03:18.114Z,30.17
2022-07-25T10:05:57.886Z,30.28
2022-07-25T10:08:24.840Z,30.43
2022-07-25T10:10:51.540Z,30.45
2022-07-25T10:13:29.993Z,30.39
2022-07-25T10:15:56.843Z,30.59
2022-07-25T10:18:25.868Z,30.47
2022-07-25T10:20:55.820Z,30.57
2022-07-25T10:23:27.173Z,30.57
2022-07-25T10:26:11.408Z,30.65
2022-07-25T10:28:41.641Z,30.72
2022-07-25T10:31:27.909Z,30.94
2022-07-25T10:33:57.257Z,31.14
2022-07-25T10:36:25.579Z,31.16
2022-07-25T10:38:56.143Z,31.30
2022-07-25T10:41:26.054Z,31.46
2022-07-25T10:43:57.830Z,31.46
2022-07-25T10:46:27.382Z,31.48
2022-07-25T10:49:05.894Z,31.64
2022-07-25T10:51:41.568Z,31.71
2022-07-25T10:54:14.206Z,31.79
2022-07-25T10:56:52.581Z,31.91
2022-07-25T10:59:29.109Z,32.19
2022-07-25T11:01:59.221Z,32.10
2022-07-25T11:04:25.897Z,32.42
2022-07-25T11:06:52.612Z,32.70
2022-07-25T11:09:28.666Z,32.95
2022-07-25T11:11:57.555Z,33.06
2022-07-25T11:14:36.524Z,33.29
2022-07-25T11:17:18.793Z,33.75
2022-07-25T11:19:55.828Z,34.11
2022-07-25T11:22:22.741Z,34.66
2022-07-25T11:24:49.353Z,34.51
2022-07-25T11:27:23.157Z,34.57
2022-07-25T11:29:49.994Z,34.46
2022-07-25T11:32:17.042Z,34.36
2022-07-25T11:34:53.757Z,34.49
2022-07-25T11:37:21.374Z,34.62
2022-07-25T11:39:48.743Z,34.55
2022-07-25T11:42:19.780Z,34.23
2022-07-25T11:44:49.155Z,34.27
2022-07-25T11:47:28.728Z,34.34
2022-07-25T11:50:03.031Z,34.50
2022-07-25T11:52:35.009Z,34.29
2022-07-25T11:55:13.129Z,34.85
2022-07-25T11:57:44.426Z,35.00
2022-07-25T12:00:17.705Z,35.23
2022-07-25T12:02:45.485Z,35.25
2022-07-25T12:05:15.637Z,35.25
2022-07-25T12:07:52.054Z,35.42
2022-07-25T12:10:33.585Z,35.58
2022-07-25T12:13:08.078Z,35.45
2022-07-25T12:15:41.369Z,35.48
2022-07-25T12:18:12.661Z,34.92
2022-07-25T12:20:43.020Z,34.83
2022-07-25T12:23:11.306Z,35.19
2022-07-25T12:25:40.516Z,35.49
2022-07-25T12:28:08.344Z,35.61
2022-07-25T12:30:35.223Z,35.30
2022-07-25T12:33:02.160Z,35.34
2022-07-25T12:35:28.876Z,35.43
2022-07-25T12:37:55.789Z,35.22
2022-07-25T12:40:22.764Z,35.16
2022-07-25T12:42:49.810Z,35.08
2022-07-25T12:45:17.912Z,34.94
2022-07-25T12:47:46.133Z,34.59
2022-07-25T12:50:13.821Z,34.62
2022-07-25T12:52:41.163Z,35.06
2022-07-25T12:55:11.466Z,35.69
2022-07-25T12:57:38.249Z,36.07
2022-07-25T13:00:07.560Z,36.51
2022-07-25T13:02:34.339Z,36.72
2022-07-25T13:05:01.081Z,36.83
2022-07-25T13:07:27.828Z,36.80
2022-07-25T13:09:57.168Z,36.45
2022-07-25T13:12:24.215Z,36.44
2022-07-25T13:14:51.491Z,36.51
2022-07-25T13:17:21.335Z,36.53
2022-07-25T13:19:50.218Z,36.87
2022-07-25T13:22:16.792Z,37.13
2022-07-25T13:24:43.780Z,37.01
2022-07-25T13:27:10.506Z,37.37
2022-07-25T13:29:37.187Z,37.87
2022-07-25T13:32:04.185Z,38.36
2022-07-25T13:34:31.026Z,38.65
2022-07-25T13:36:58.426Z,38.55
2022-07-25T13:39:25.091Z,37.95
2022-07-25T13:41:51.633Z,38.09
2022-07-25T13:44:18.621Z,38.14
2022-07-25T13:46:49.856Z,38.01
2022-07-25T13:49:17.808Z,38.22
2022-07-25T13:51:45.611Z,38.10
2022-07-25T13:54:12.605Z,38.48
2022-07-25T13:56:40.594Z,38.59
2022-07-25T13:59:07.687Z,39.05
2022-07-25T14:01:34.841Z,39.19
2022-07-25T14:04:01.885Z,38.38
2022-07-25T14:06:28.495Z,38.72
2022-07-25T14:08:55.061Z,38.48
2022-07-25T14:11:23.121Z,38.44
2022-07-25T14:13:51.463Z,38.33
2022-07-25T14:16:19.911Z,38.71
2022-07-25T14:18:46.781Z,38.54
2022-07-25T14:21:13.424Z,38.24
2022-07-25T14:23:41.112Z,37.38
2022-07-25T14:26:07.786Z,37.40
2022-07-25T14:28:34.409Z,38.04
2022-07-25T14:31:01.078Z,38.08
2022-07-25T14:33:27.637Z,38.30
2022-07-25T14:35:54.269Z,38.36
2022-07-25T14:38:21.067Z,38.61
2022-07-25T14:40:48.424Z,38.88
2022-07-25T14:43:15.002Z,38.21
2022-07-25T14:45:42.008Z,38.51
2022-07-25T14:48:08.719Z,41.65
2022-07-25T14:50:35.306Z,43.88
2022-07-25T14:53:01.968Z,44.79
2022-07-25T14:55:28.720Z,45.63
2022-07-25T14:57:57.849Z,45.53
2022-07-25T15:00:29.188Z,46.75
2022-07-25T15:02:56.836Z,47.87
2022-07-25T15:05:23.522Z,49.13
2022-07-25T15:07:50.320Z,49.51
2022-07-25T15:10:17.393Z,49.27
2022-07-25T15:12:44.037Z,48.96
2022-07-25T15:15:11.501Z,49.94
2022-07-25T15:17:38.887Z,50.32
2022-07-25T15:20:06.106Z,49.73
2022-07-25T15:22:32.722Z,50.87
2022-07-25T15:27:45.925Z,51.23
2022-07-25T15:30:13.220Z,50.69
2022-07-25T15:32:40.276Z,49.12
2022-07-25T15:35:07.476Z,47.58
2022-07-25T15:37:34.105Z,44.94
2022-07-25T15:40:01.373Z,45.85
2022-07-25T15:42:29.435Z,43.94
2022-07-25T15:45:22.289Z,42.35
2022-07-25T15:47:46.295Z,40.21
2022-07-25T15:50:18.045Z,38.90
2022-07-25T15:52:44.700Z,37.80
2022-07-25T15:55:11.549Z,37.78
2022-07-25T15:57:38.213Z,37.26
2022-07-25T16:00:07.620Z,37.07
2022-07-25T16:02:34.784Z,37.01
2022-07-25T16:05:02.249Z,37.70
2022-07-25T16:07:28.931Z,37.39
2022-07-25T16:09:56.701Z,40.51
2022-07-25T16:12:28.339Z,44.31
2022-07-25T16:14:55.405Z,45.11
2022-07-25T16:17:22.011Z,46.51
2022-07-25T16:19:48.648Z,46.45
2022-07-25T16:22:15.493Z,46.54
2022-07-25T16:24:42.159Z,46.22
2022-07-25T16:27:09.970Z,46.56
2022-07-25T16:29:37.310Z,46.28
2022-07-25T16:32:04.590Z,46.73
2022-07-25T16:34:31.946Z,47.08
2022-07-25T16:36:58.745Z,45.90
2022-07-25T16:39:25.387Z,45.94
2022-07-25T16:41:52.068Z,43.74
2022-07-25T16:44:19.051Z,43.56
2022-07-25T16:46:46.005Z,43.17
2022-07-25T16:49:15.392Z,43.52
2022-07-25T16:51:45.689Z,44.76
2022-07-25T16:54:12.411Z,45.51
2022-07-25T16:56:39.929Z,46.73
2022-07-25T16:59:08.380Z,46.00
2022-07-25T17:01:38.426Z,43.71
2022-07-25T17:04:05.455Z,41.37
2022-07-25T17:06:32.253Z,39.71
2022-07-25T17:08:59.018Z,37.96
2022-07-25T17:11:27.354Z,36.64
2022-07-25T17:13:53.955Z,36.17
2022-07-25T17:16:20.584Z,35.45
2022-07-25T17:18:47.356Z,35.23
2022-07-25T17:21:16.723Z,34.41
2022-07-25T17:23:43.626Z,34.31
2022-07-25T17:26:10.394Z,33.93
2022-07-25T17:28:37.321Z,33.56
2022-07-25T17:31:03.990Z,33.22
2022-07-25T17:33:30.639Z,32.83
2022-07-25T17:35:59.707Z,32.52
2022-07-25T17:38:30.309Z,32.22
2022-07-25T17:41:01.033Z,32.56
2022-07-25T17:43:28.918Z,32.34
2022-07-25T17:45:56.604Z,32.34
2022-07-25T17:48:23.294Z,32.00
2022-07-25T17:50:50.105Z,32.03
2022-07-25T17:53:18.171Z,32.49
2022-07-25T17:55:45.533Z,32.47
2022-07-25T17:58:12.177Z,32.21
2022-07-25T18:00:38.992Z,32.15
2022-07-25T18:03:06.608Z,32.09
2022-07-25T18:05:33.334Z,31.92
2022-07-25T18:08:00.136Z,31.26
2022-07-25T18:10:26.893Z,30.95
2022-07-25T18:12:53.494Z,30.98
2022-07-25T18:15:20.144Z,31.02
2022-07-25T18:17:47.938Z,30.67
2022-07-25T18:20:16.431Z,30.76
2022-07-25T18:22:43.273Z,30.56
2022-07-25T18:25:11.868Z,30.18
2022-07-25T18:27:41.986Z,30.30
2022-07-25T18:30:09.807Z,30.33
2022-07-25T18:32:36.819Z,30.15
2022-07-25T18:35:04.413Z,30.19
2022-07-25T18:37:31.407Z,30.34
2022-07-25T18:39:58.081Z,30.02
2022-07-25T18:42:29.530Z,29.77
2022-07-25T18:44:57.087Z,29.71
2022-07-25T18:47:26.422Z,29.61
2022-07-25T18:49:57.230Z,29.52
2022-07-25T18:52:24.830Z,29.36
2022-07-25T18:54:51.482Z,29.41
2022-07-25T18:57:18.201Z,29.30
2022-07-25T18:59:44.942Z,29.26
2022-07-25T19:02:11.786Z,29.29
2022-07-25T19:04:38.549Z,29.14
2022-07-25T19:07:05.193Z,29.02
2022-07-25T19:09:31.848Z,28.94
2022-07-25T19:11:58.601Z,29.03
2022-07-25T19:14:27.390Z,29.00
2022-07-25T19:16:54.916Z,28.87
2022-07-25T19:19:21.569Z,28.75
2022-07-25T19:21:48.822Z,28.68
2022-07-25T19:24:16.290Z,28.66
2022-07-25T19:26:43.630Z,28.72
2022-07-25T19:29:16.724Z,28.60
2022-07-25T19:31:44.262Z,28.60
2022-07-25T19:34:11.787Z,28.51
2022-07-25T19:36:38.769Z,28.45
2022-07-25T19:39:06.270Z,28.43
2022-07-25T19:41:33.672Z,28.17
2022-07-25T19:44:00.601Z,28.23
2022-07-25T19:46:31.439Z,28.22
2022-07-25T19:48:58.534Z,28.19
2022-07-25T19:51:25.307Z,28.17
2022-07-25T19:53:51.922Z,28.15
2022-07-25T19:56:18.574Z,28.13
2022-07-25T19:58:45.277Z,28.08
2022-07-25T20:01:12.953Z,27.89
2022-07-25T20:03:40.403Z,27.89
2022-07-25T20:06:08.518Z,27.90
2022-07-25T20:08:36.653Z,27.85
2022-07-25T20:11:03.508Z,27.88
2022-07-25T20:13:30.259Z,27.83
2022-07-25T20:15:57.362Z,27.83
2022-07-25T20:18:24.232Z,27.76
2022-07-25T20:20:51.007Z,27.77
2022-07-25T20:23:17.681Z,27.63
2022-07-25T20:25:44.491Z,27.59
2022-07-25T20:28:11.153Z,27.57
2022-07-25T20:30:37.821Z,27.60
2022-07-25T20:33:05.544Z,27.51
2022-07-25T20:35:36.945Z,27.56
2022-07-25T20:38:03.720Z,27.48
2022-07-25T20:40:36.234Z,27.40
2022-07-25T20:43:04.470Z,27.21
2022-07-25T20:45:31.128Z,27.24
2022-07-25T20:47:57.939Z,27.18
2022-07-25T20:50:24.582Z,27.04
2022-07-25T20:52:51.840Z,27.05
2022-07-25T20:55:18.402Z,26.83
2022-07-25T20:57:50.086Z,26.71
2022-07-25T21:00:17.273Z,26.39
2022-07-25T21:02:44.006Z,26.43
2022-07-25T21:05:10.764Z,26.43
2022-07-25T21:07:37.439Z,26.41
2022-07-25T21:10:04.731Z,26.37
2022-07-25T21:12:33.075Z,26.15
2022-07-25T21:15:01.379Z,26.28
2022-07-25T21:17:28.450Z,26.08
2022-07-25T21:19:55.186Z,25.98
2022-07-25T21:22:22.019Z,25.94
2022-07-25T21:24:49.683Z,25.96
2022-07-25T21:27:17.460Z,25.86
2022-07-25T21:29:44.479Z,25.70
2022-07-25T21:32:13.762Z,25.66
2022-07-25T21:34:41.666Z,25.66
2022-07-25T21:37:08.541Z,25.54
2022-07-25T21:39:35.404Z,25.64
2022-07-25T21:42:02.057Z,25.53
2022-07-25T21:44:28.721Z,25.43
2022-07-25T21:46:55.415Z,25.39
2022-07-25T21:49:42.753Z,25.21
2022-07-25T21:52:13.954Z,25.13
2022-07-25T21:54:42.121Z,24.84
2022-07-25T21:57:13.420Z,24.73
2022-07-25T21:59:44.406Z,24.67
2022-07-25T22:02:11.370Z,24.34
2022-07-25T22:04:38.041Z,24.19
2022-07-25T22:07:05.142Z,24.16
2022-07-25T22:09:31.780Z,24.01
2022-07-25T22:11:58.872Z,23.92
2022-07-25T22:14:25.585Z,24.10
2022-07-25T22:16:52.326Z,24.17
2022-07-25T22:19:22.367Z,23.99
2022-07-25T22:21:50.093Z,24.20
2022-07-25T22:24:17.118Z,24.25
2022-07-25T22:26:43.772Z,24.23
2022-07-25T22:29:11.307Z,24.21
2022-07-25T22:31:39.185Z,24.22
2022-07-25T22:34:06.089Z,24.09
2022-07-25T22:36:32.697Z,24.23
2022-07-25T22:38:59.319Z,24.20
2022-07-25T22:41:25.926Z,24.00
2022-07-25T22:43:57.976Z,23.81
2022-07-25T22:46:27.962Z,23.72
2022-07-25T22:48:54.774Z,23.73
2022-07-25T22:51:22.333Z,23.82
2022-07-25T22:53:49.445Z,23.76
2022-07-25T22:56:16.898Z,23.75
2022-07-25T22:58:43.620Z,23.80
2022-07-25T23:01:12.696Z,23.80
2022-07-25T23:03:39.450Z,23.77
2022-07-25T23:06:06.645Z,23.82
2022-07-25T23:08:33.258Z,23.78
2022-07-25T23:11:00.117Z,23.87
2022-07-25T23:13:26.692Z,23.94
2022-07-25T23:15:53.321Z,24.00
2022-07-25T23:18:20.079Z,24.00
2022-07-25T23:20:46.901Z,24.05
2022-07-25T23:23:13.877Z,24.06
2022-07-25T23:25:40.521Z,24.03
2022-07-25T23:28:07.230Z,23.93
2022-07-25T23:30:39.718Z,24.00
2022-07-25T23:33:07.582Z,23.87
2022-07-25T23:35:34.660Z,23.87
2022-07-25T23:38:01.359Z,23.87
2022-07-25T23:40:27.954Z,23.92
2022-07-25T23:42:54.913Z,23.84
2022-07-25T23:45:21.734Z,23.78
2022-07-25T23:47:49.614Z,23.68
2022-07-25T23:50:18.381Z,23.61
2022-07-25T23:52:45.145Z,23.58
2022-07-25T23:55:11.802Z,23.57
2022-07-25T23:57:38.432Z,23.46
